地図

経路データ

SID SEASON NUMBER BASIN SUBBASIN NAME ISO_TIME NATURE LAT LON WMO_WIND WMO_PRES WMO_AGENCY TRACK_TYPE DIST2LAND LANDFALL IFLAG USA_AGENCY USA_ATCF_ID USA_LAT USA_LON USA_RECORD USA_STATUS USA_WIND USA_PRES USA_SSHS USA_R34_NE USA_R34_SE USA_R34_SW USA_R34_NW USA_R50_NE USA_R50_SE USA_R50_SW USA_R50_NW USA_R64_NE USA_R64_SE USA_R64_SW USA_R64_NW USA_POCI USA_ROCI USA_RMW USA_EYE TOKYO_LAT TOKYO_LON TOKYO_GRADE TOKYO_WIND TOKYO_PRES TOKYO_R50_DIR TOKYO_R50_LONG TOKYO_R50_SHORT TOKYO_R30_DIR TOKYO_R30_LONG TOKYO_R30_SHORT TOKYO_LAND CMA_LAT CMA_LON CMA_CAT CMA_WIND CMA_PRES HKO_LAT HKO_LON HKO_CAT HKO_WIND HKO_PRES NEWDELHI_LAT NEWDELHI_LON NEWDELHI_GRADE NEWDELHI_WIND NEWDELHI_PRES NEWDELHI_CI NEWDELHI_DP NEWDELHI_POCI REUNION_LAT REUNION_LON REUNION_TYPE REUNION_WIND REUNION_PRES REUNION_TNUM REUNION_CI REUNION_RMW REUNION_R34_NE REUNION_R34_SE REUNION_R34_SW REUNION_R34_NW REUNION_R50_NE REUNION_R50_SE REUNION_R50_SW REUNION_R50_NW REUNION_R64_NE REUNION_R64_SE REUNION_R64_SW REUNION_R64_NW BOM_LAT BOM_LON BOM_TYPE BOM_WIND BOM_PRES BOM_TNUM BOM_CI BOM_RMW BOM_R34_NE BOM_R34_SE BOM_R34_SW BOM_R34_NW BOM_R50_NE BOM_R50_SE BOM_R50_SW BOM_R50_NW BOM_R64_NE BOM_R64_SE BOM_R64_SW BOM_R64_NW BOM_ROCI BOM_POCI BOM_EYE BOM_POS_METHOD BOM_PRES_METHOD NADI_LAT NADI_LON NADI_CAT NADI_WIND NADI_PRES WELLINGTON_LAT WELLINGTON_LON WELLINGTON_WIND WELLINGTON_PRES DS824_LAT DS824_LON DS824_STAGE DS824_WIND DS824_PRES TD9636_LAT TD9636_LON TD9636_STAGE TD9636_WIND TD9636_PRES TD9635_LAT TD9635_LON TD9635_WIND TD9635_PRES TD9635_ROCI NEUMANN_LAT NEUMANN_LON NEUMANN_CLASS NEUMANN_WIND NEUMANN_PRES MLC_LAT MLC_LON MLC_CLASS MLC_WIND MLC_PRES USA_GUST BOM_GUST BOM_GUST_PER REUNION_GUST REUNION_GUST_PER USA_SEAHGT USA_SEARAD_NE USA_SEARAD_SE USA_SEARAD_SW USA_SEARAD_NW STORM_SPEED STORM_DIR
1961006S11162 1961 5 SP MM BARBARINE 1961-01-06 00:00:00 TS -11.4000 162.100 main 67 67 O________OO___ jtwc_sh SH121961 -11.4000 162.100 -1 -11.4000 162.100 TC -11.4000 162.100 1 3 270
1961006S11162 1961 5 SP MM BARBARINE 1961-01-06 03:00:00 TS -11.4005 161.955 main 67 67 P________PP___ SH121961 -11.4000 161.960 -1 -11.4000 161.960 TC -11.4016 161.944 1 3 270
1961006S11162 1961 5 SP MM BARBARINE 1961-01-06 06:00:00 TS -11.4008 161.793 main 67 67 O________OP___ jtwc_sh SH121961 -11.4000 161.800 -1 -11.4000 161.800 TC -11.4025 161.780 1 3 270
1961006S11162 1961 5 SP MM BARBARINE 1961-01-06 09:00:00 TS -11.4007 161.605 main 70 70 P________PP___ SH121961 -11.4000 161.607 -1 -11.4000 161.607 TC -11.4021 161.601 1 4 270
1961006S11162 1961 5 SP MM BARBARINE 1961-01-06 12:00:00 TS -11.4000 161.400 main 80 80 O________OO___ jtwc_sh SH121961 -11.4000 161.400 -1 -11.4000 161.400 TC -11.4000 161.400 1 4 271
1961006S11162 1961 5 SP MM BARBARINE 1961-01-06 15:00:00 TS -11.3942 161.196 main 93 93 P________PP___ SH121961 -11.3925 161.207 -1 -11.3925 161.207 TC -11.3976 161.173 1 4 270
1961006S11162 1961 5 SP MM BARBARINE 1961-01-06 18:00:00 TS -11.4017 160.978 main 104 104 O________OP___ jtwc_sh SH121961 -11.4000 161.000 -1 -11.4000 161.000 TC -11.4051 160.935 1 5 265
1961006S11162 1961 5 SP MM BARBARINE 1961-01-06 21:00:00 TS -11.4350 160.730 main 125 125 P________PP___ SH121961 -11.4350 160.743 -1 -11.4350 160.743 TC -11.4351 160.704 1 5 258
1961006S11162 1961 5 SP MM BARBARINE 1961-01-07 00:00:00 TS -11.5000 160.500 main 148 148 O________OO___ jtwc_sh SH121961 -11.5000 160.500 -1 -11.5000 160.500 TC -11.5000 160.500 1 4 249
1961006S11162 1961 5 SP MM BARBARINE 1961-01-07 03:00:00 TS -11.5856 160.327 main 172 172 P________PP___ SH121961 -11.5775 160.327 -1 -11.5775 160.327 TC -11.6018 160.326 1 4 234
1961006S11162 1961 5 SP MM BARBARINE 1961-01-07 06:00:00 TS -11.7133 160.194 main 187 187 O________OP___ jtwc_sh SH121961 -11.7000 160.200 -1 -11.7000 160.200 TC -11.7399 160.183 1 4 218
1961006S11162 1961 5 SP MM BARBARINE 1961-01-07 09:00:00 TS -11.8927 160.081 main 211 211 P________PP___ SH121961 -11.8850 160.085 -1 -11.8850 160.085 TC -11.9081 160.073 1 4 206
1961006S11162 1961 5 SP MM BARBARINE 1961-01-07 12:00:00 TS -12.1000 160.000 main 234 234 O________OO___ jtwc_sh SH121961 -12.1000 160.000 -1 -12.1000 160.000 TC -12.1000 160.000 1 4 199
1961006S11162 1961 5 SP EA BARBARINE 1961-01-07 15:00:00 TS -12.2961 159.936 main 258 251 P________PP___ SH121961 -12.2925 159.928 -1 -12.2925 159.928 TC -12.3034 159.952 1 5 165
1961006S11162 1961 5 SP MM BARBARINE 1961-01-07 18:00:00 TS -12.5777 160.128 main 271 265 O________OP_O_ jtwc_sh SH121961 -12.5000 159.900 -1 -12.5000 159.900 TC -12.5275 159.940 1 -13.4000 162.700 TC 30 999 8 144
1961006S11162 1961 5 SP MM BARBARINE 1961-01-07 21:00:00 TS -12.9194 160.393 main 280 280 P________PP_P_ SH121961 -12.7500 159.935 -1 -12.7500 159.935 TC -12.7628 159.958 1 -13.9102 163.097 TC 30 999 9 142
1961006S11162 1961 5 SP MM BARBARINE 1961-01-08 00:00:00 TS -13.2600 160.680 main 304 300 O________OO_O_ jtwc_sh SH121961 -13.0000 160.000 -1 -13.0000 160.000 TC -13.0000 160.000 1 -14.3000 163.400 TC 30 999 8 140
1961006S11162 1961 5 SP MM BARBARINE 1961-01-08 03:00:00 TS -13.5350 160.918 main 317 317 P________PP_P_ SH121961 -13.2000 160.043 -1 -13.2000 160.043 TC -13.2453 160.041 1 -14.4949 163.545 TC 32 998 5 148
1961006S11162 1961 5 SP MM BARBARINE 1961-01-08 06:00:00 TS -13.7219 160.976 main 336 336 O________OP_O_ jtwc_sh SH121961 -13.4000 160.100 -1 -13.4000 160.100 TC -13.4875 160.105 1 -14.6000 163.600 TC 35 998 4 162
1961006S11162 1961 5 SP MM BARBARINE 1961-01-08 09:00:00 TS -13.9477 161.053 main 355 355 P________PP_P_ SH121961 -13.6650 160.185 -1 -13.6650 160.185 TC -13.7109 160.191 1 -14.7500 163.650 TC 35 998 5 159
1961006S11162 1961 5 SP MM BARBARINE 1961-01-08 12:00:00 TS -14.1500 161.150 main 375 377 O________OO_O_ jtwc_sh SH121961 -13.9000 160.300 -1 -13.9000 160.300 TC -13.9000 160.300 1 -14.9000 163.700 TC 35 998 4 147
1961006S11162 1961 5 SP MM BARBARINE 1961-01-08 15:00:00 TS -14.2722 161.273 main 395 394 P________PP_P_ SH121961 -14.0225 160.443 -1 -14.0225 160.443 TC -14.0237 160.408 1 -15.0200 163.800 TC 35 998 3 132
1961006S11162 1961 5 SP MM BARBARINE 1961-01-08 18:00:00 TS -14.3787 161.410 main 405 404 O________OP_O_ jtwc_sh SH121961 -14.1000 160.600 -1 -14.1000 160.600 TC -14.1148 160.540 1 -15.2000 163.900 TC 35 998 4 136
1961006S11162 1961 5 SP MM BARBARINE 1961-01-08 21:00:00 TS -14.5315 161.529 main 415 415 P________PP_P_ SH121961 -14.1925 160.735 -1 -14.1925 160.735 TC -14.1986 160.702 1 -15.5425 163.943 TC 35 998 4 141
1961006S11162 1961 5 SP MM BARBARINE 1961-01-09 00:00:00 TS -14.7000 161.675 main 436 436 O________OO_O_ jtwc_sh SH121961 -14.3000 160.900 -1 -14.3000 160.900 TC -14.3000 160.900 1 -15.9000 164.000 TC 35 998 5 134
1961006S11162 1961 5 SP MM BARBARINE 1961-01-09 03:00:00 TS -14.8616 161.876 main 459 459 P________PP_P_ SH121961 -14.4350 161.128 -1 -14.4350 161.128 TC -14.4614 161.115 1 -16.1150 164.135 TC 35 998 5 128
1961006S11162 1961 5 SP MM BARBARINE 1961-01-09 06:00:00 TS -15.0356 162.117 main 470 442 O________OP_O_ jtwc_sh SH121961 -14.6000 161.400 -1 -14.6000 161.400 TC -14.6422 161.367 1 -16.3000 164.300 TC 35 998 6 130
1961006S11162 1961 5 SP MM BARBARINE 1961-01-09 09:00:00 TS -15.2517 162.367 main 443 424 P________PP_P_ SH121961 -14.8149 161.677 -1 -14.8149 161.677 TC -14.8269 161.662 1 -16.5500 164.450 TC 35 998 7 129
1961006S11162 1961 5 SP MM BARBARINE 1961-01-09 12:00:00 TS -15.4500 162.650 main 413 383 O________OO_O_ jtwc_sh SH121961 -15.0000 162.000 -1 -15.0000 162.000 TC -15.0000 162.000 1 -16.8000 164.600 TC 35 998 7 116
1961006S11162 1961 5 SP MM BARBARINE 1961-01-09 15:00:00 TS -15.5396 162.976 main 383 354 P________PP_P_ SH121961 -15.0500 162.378 -1 -15.0500 162.378 TC -15.0585 162.399 1 -17.0000 164.750 TC 35 998 7 105
1961006S11162 1961 5 SP MM BARBARINE 1961-01-09 18:00:00 TS -15.6289 163.334 main 354 313 O________OP_O_ jtwc_sh SH121961 -15.1000 162.800 -1 -15.1000 162.800 TC -15.1155 162.837 1 -17.2000 164.900 TC 35 998 8 110
1961006S11162 1961 5 SP MM BARBARINE 1961-01-09 21:00:00 TS -15.8131 163.736 main 313 276 P________PP_P_ SH121961 -15.2251 163.265 -1 -15.2251 163.265 TC -15.2397 163.281 1 -17.5624 165.133 TC 35 998 8 121
1961006S11162 1961 5 SP MM BARBARINE 1961-01-10 00:00:00 TS -16.0500 164.075 main 276 268 O________OO_O_ jtwc_sh SH121961 -15.5000 163.700 -1 -15.5000 163.700 TC -15.5000 163.700 1 -17.7000 165.200 TC 35 998 6 134
1961006S11162 1961 5 SP MM BARBARINE 1961-01-10 03:00:00 TS -16.2553 164.205 main 275 270 P________PP_P_ SH121961 -15.9748 164.015 -1 -15.9748 164.015 TC -15.9886 164.014 1 -17.0830 164.776 TC 40 6 156
1961006S11162 1961 5 SP MM BARBARINE 1961-01-10 06:00:00 TS -16.6034 164.327 main 280 276 O________OP_O_ jtwc_sh SH121961 -16.6000 164.300 -1 -16.6000 164.300 TC -16.6138 164.306 1 -16.6000 164.400 TC 45 11 159
1961006S11162 1961 5 SP MM BARBARINE 1961-01-10 09:00:00 TS -17.2604 164.599 main 295 262 P________PP_P_ SH121961 -17.2998 164.613 -1 -17.2998 164.613 TC -17.3072 164.621 1 -17.1348 164.550 TC 45 15 155
1961006S11162 1961 5 SP MM BARBARINE 1961-01-10 12:00:00 TS -18.0000 165.000 main 262 222 O________OO_O_ jtwc_sh SH121961 -18.0000 165.000 -1 -18.0000 165.000 TC -18.0000 165.000 1 -18.0000 165.000 TC 45 16 146
1961006S11162 1961 5 SP MM BARBARINE 1961-01-10 15:00:00 TS -18.5673 165.530 main 217 212 P________PP_P_ SH121961 -18.5650 165.513 -1 -18.5650 165.513 TC -18.5741 165.531 1 -18.5652 165.563 TC 42 15 136
1961006S11162 1961 5 SP MM BARBARINE 1961-01-10 18:00:00 TS -19.1091 166.132 main 212 198 O________OP_O_ jtwc_sh SH121961 -19.1000 166.100 -1 -19.1000 166.100 TC -19.1364 166.127 1 -19.1000 166.200 TC 40 16 134
1961006S11162 1961 5 SP MM BARBARINE 1961-01-10 21:00:00 TS -19.6883 166.740 main 198 182 P________PP_P_ SH121961 -19.6851 166.723 -1 -19.6851 166.723 TC -19.7054 166.735 1 -19.6775 166.780 TC 40 16 137
1961006S11162 1961 5 SP MM BARBARINE 1961-01-11 00:00:00 TS -20.3000 167.300 main 182 157 O________OO_O_ jtwc_sh SH121961 -20.3000 167.300 -1 -20.3000 167.300 TC -20.3000 167.300 1 -20.3000 167.300 TC 40 16 144
1961006S11162 1961 5 SP MM BARBARINE 1961-01-11 03:00:00 TS -20.9537 167.733 main 148 129 P________PP_P_ SH121961 -20.9347 167.731 -1 -20.9347 167.731 TC -20.9533 167.748 1 -20.9922 167.723 TC 40 15 150
1961006S11162 1961 5 SP MM BARBARINE 1961-01-11 06:00:00 TS -21.6334 168.112 main 131 126 O________OP_O_ jtwc_sh SH121961 -21.6000 168.100 -1 -21.6000 168.100 TC -21.6337 168.147 1 -21.7000 168.100 TC 40 16 152
1961006S11162 1961 5 SP MM BARBARINE 1961-01-11 09:00:00 TS -22.3236 168.504 main 154 154 P________PP_P_ SH121961 -22.3074 168.500 -1 -22.3074 168.500 TC -22.3222 168.523 1 -22.3573 168.493 TC 40 16 152
1961006S11162 1961 5 SP MM BARBARINE 1961-01-11 12:00:00 TS -23.0000 168.900 main 210 210 O________OO_O_ jtwc_sh SH121961 -23.0000 168.900 -1 -23.0000 168.900 TC -23.0000 168.900 1 -23.0000 168.900 TC 40 15 150
1961006S11162 1961 5 SP MM BARBARINE 1961-01-11 15:00:00 TS -23.6278 169.314 main 276 276 P________PP_P_ SH121961 -23.6073 169.293 -1 -23.6073 169.293 TC -23.6391 169.319 1 -23.6575 169.350 TC 40 15 148
1961006S11162 1961 5 SP MM BARBARINE 1961-01-11 18:00:00 TS -24.2411 169.736 main 348 348 O________OP_O_ jtwc_sh SH121961 -24.2000 169.700 -1 -24.2000 169.700 TC -24.2646 169.744 1 -24.3000 169.800 TC 40 15 148
1961006S11162 1961 5 SP MM BARBARINE 1961-01-11 21:00:00 TS -24.8725 170.170 main 436 436 P________PP_P_ SH121961 -24.8500 170.150 -1 -24.8500 170.150 TC -24.8828 170.172 1 -24.9073 170.208 TC 35 15 148
1961006S11162 1961 5 SP MM BARBARINE 1961-01-12 00:00:00 TS -25.5000 170.600 main 511 511 O________OO_O_ jtwc_sh SH121961 -25.5000 170.600 -1 -25.5000 170.600 TC -25.5000 170.600 1 -25.5000 170.600 TC 30 15 148
1961006S11162 1961 5 SP MM BARBARINE 1961-01-12 03:00:00 TS -26.1052 171.007 main 586 586 P________PP_P_ SH121961 -26.0998 171.001 -1 -26.0998 171.001 TC -26.1288 171.034 1 -26.0923 170.993 TC 30 14 149
1961006S11162 1961 5 SP MM BARBARINE 1961-01-12 06:00:00 TS -26.7143 171.417 main 661 661 O________OP_O_ jtwc_sh SH121961 -26.7000 171.400 -1 -26.7000 171.400 TC -26.7572 171.466 1 -26.7000 171.400 TC 30 15 149
1961006S11162 1961 5 SP MM BARBARINE 1961-01-12 09:00:00 TS -27.3542 171.857 main 752 725 P________PP_P_ SH121961 -27.3424 171.843 -1 -27.3424 171.843 TC -27.3820 171.890 1 -27.3500 171.850 TC 32 15 149
1961006S11162 1961 5 SP MM BARBARINE 1961-01-12 12:00:00 TS -28.0000 172.300 main 725 658 O________OO_O_ jtwc_sh SH121961 -28.0000 172.300 -1 -28.0000 172.300 TC -28.0000 172.300 2 -28.0000 172.300 TC 35 15 149
1961006S11162 1961 5 SP MM BARBARINE 1961-01-12 15:00:00 TS -28.6493 172.744 main 658 591 P________PP_P_ SH121961 -28.6650 172.772 -1 -28.6650 172.772 TC -28.6598 172.717 2 -28.6074 172.716 TC 32 15 150
1961006S11162 1961 5 SP MM BARBARINE 1961-01-12 18:00:00 TS -29.2762 173.154 main 580 515 O________OP_O_ jtwc_sh SH121961 -29.3000 173.200 -1 -29.3000 173.200 TC -29.3049 173.116 2 -29.2000 173.100 TC 30 14 152
1961006S11162 1961 5 SP MM BARBARINE 1961-01-12 21:00:00 TS -29.8830 173.510 main 515 463 P________PP_P_ SH121961 -29.8948 173.538 -1 -29.8948 173.538 TC -29.8975 173.483 2 -29.8450 173.480 TC 30 13 154
1961006S11162 1961 5 SP MM BARBARINE 1961-01-13 00:00:00 TS -30.4000 173.800 main 463 423 O________OO_O_ jtwc_sh SH121961 -30.4000 173.800 -1 -30.4000 173.800 TC -30.4000 173.800 1 -30.4000 173.800 TC 30 10 154
1961006S11162 1961 5 SP MM BARBARINE 1961-01-13 03:00:00 TS -30.7842 174.027 main 423 395 P________PP_P_ SH121961 -30.8024 174.015 -1 -30.8024 174.015 TC -30.7799 174.053 1 -30.7523 174.023 TC 30 8 152
1961006S11162 1961 5 SP MM BARBARINE 1961-01-13 06:00:00 TS -31.0673 174.214 main 395 379 O________OP_O_ jtwc_sh SH121961 -31.1000 174.200 -1 -31.1000 174.200 TC -31.0691 174.255 1 -31.0000 174.200 TC 30 6 148
1961006S11162 1961 5 SP MM BARBARINE 1961-01-13 09:00:00 TS -31.3022 174.408 main 379 366 P________PP_P_ SH121961 -31.3225 174.400 -1 -31.3225 174.400 TC -31.2988 174.430 1 -31.2650 174.400 TC 30 5 143
1961006S11162 1961 5 SP MM BARBARINE 1961-01-13 12:00:00 TS -31.5000 174.600 main 366 349 O________OO_O_ jtwc_sh SH121961 -31.5000 174.600 -1 -31.5000 174.600 TC -31.5000 174.600 1 -31.5000 174.600 TC 30 5 141
1961006S11162 1961 5 SP MM BARBARINE 1961-01-13 15:00:00 TS -31.7028 174.782 main 354 339 P________PP_P_ SH121961 -31.7000 174.800 -1 -31.7000 174.800 TC -31.7039 174.729 1 -31.7075 174.800 TC 30 5 142
1961006S11162 1961 5 SP MM BARBARINE 1961-01-13 18:00:00 TS -31.8975 174.967 main 344 330 O________OP_O_ jtwc_sh SH121961 -31.9000 175.000 -1 -31.9000 175.000 TC -31.8901 174.869 1 -31.9000 175.000 TC 30 5 142
1961006S11162 1961 5 SP MM BARBARINE 1961-01-13 21:00:00 TS -32.0800 175.128 main 330 324 P________PP_P_ SH121961 -32.0846 175.148 -1 -32.0846 175.148 TC -32.0814 175.074 1 -32.0695 175.141 TC 30 5 138
1961006S11162 1961 5 SP MM BARBARINE 1961-01-14 00:00:00 TS -32.3000 175.400 main 331 324 O________OO_O_ jtwc_sh SH121961 -32.3000 175.400 -1 -32.3000 175.400 TC -32.3000 175.400 1 -32.3000 175.400 TC 30 9 130
1961006S11162 1961 5 SP MM BARBARINE 1961-01-14 03:00:00 TS -32.6374 175.906 main 329 319 P________PP_P_ SH121961 -32.5848 175.868 -1 -32.5848 175.868 TC -32.6798 175.967 1 -32.7001 175.924 TC 30 12 125
1961006S11162 1961 5 SP MM BARBARINE 1961-01-14 06:00:00 TS -32.9923 176.563 main 332 329 O________OP_O_ jtwc_sh SH121961 -32.9000 176.500 -1 -32.9000 176.500 TC -33.0694 176.653 1 -33.1000 176.600 TC 30 14 121
1961006S11162 1961 5 SP MM BARBARINE 1961-01-14 09:00:00 TS -33.3382 177.295 main 353 346 P________PP_P_ SH121961 -33.2906 177.256 -1 -33.2906 177.256 TC -33.3737 177.364 1 -33.3977 177.307 TC 30 13 113
1961006S11162 1961 5 SP MM BARBARINE 1961-01-14 12:00:00 TS -33.5000 178.000 main 391 391 O________OO_O_ jtwc_sh SH121961 -33.5000 178.000 -1 -33.5000 178.000 TC -33.5000 178.000 1 -33.5000 178.000 TC 30 11 89
1961006S11162 1961 5 SP MM BARBARINE 1961-01-14 15:00:00 TS -33.3130 178.589 main 450 450 P________PP_P_ SH121961 -33.3047 178.592 -1 -33.3047 178.592 TC -33.2950 178.531 1 -33.3475 178.641 TC 30 10 56
1961006S11162 1961 5 SP MM BARBARINE 1961-01-14 18:00:00 TS -32.9296 179.013 main 505 505 O________OP_O_ jtwc_sh SH121961 -32.9000 179.000 -1 -32.9000 179.000 TC -32.9183 178.951 1 -33.0000 179.100 TC 30 10 35
1961006S11162 1961 5 SP MM BARBARINE 1961-01-14 21:00:00 TS -32.4947 179.272 main 554 554 P________PP_P_ SH121961 -32.4771 179.270 -1 -32.4771 179.270 TC -32.4825 179.220 1 -32.5420 179.327 TC 30 9 16
1961006S11162 1961 5 SP MM BARBARINE 1961-01-15 00:00:00 TS -32.1000 179.300 main 582 582 O________OO_O_ jtwc_sh SH121961 -32.1000 179.300 -1 -32.1000 179.300 TC -32.1000 179.300 1 -32.1000 179.300 TC 30 6 346
1961006S11162 1961 5 SP MM BARBARINE 1961-01-15 03:00:00 TS -31.8759 179.090 main 583 563 P________PP_P_ SH121961 -31.8976 179.075 -1 -31.8976 179.075 TC -31.8757 179.143 1 -31.8326 179.067 TC 30 6 305
1961006S11162 1961 5 SP MM BARBARINE 1961-01-15 06:00:00 TS -31.7571 178.728 main 563 552 O________OP_O_ jtwc_sh SH121961 -31.8000 178.700 -1 -31.8000 178.700 TC -31.7285 178.811 1 -31.7000 178.700 TC 30 7 287
1961006S11162 1961 5 SP MM BARBARINE 1961-01-15 09:00:00 TS -31.6830 178.353 main 552 527 P________PP_P_ SH121961 -31.7126 178.335 -1 -31.7126 178.335 TC -31.6668 178.400 1 -31.6401 178.343 TC 30 6 275
1961006S11162 1961 5 SP MM BARBARINE 1961-01-15 12:00:00 TS -31.7000 178.000 main 527 506 O________OO_O_ jtwc_sh SH121961 -31.7000 178.000 -1 -31.7000 178.000 TC -31.7000 178.000 1 -31.7000 178.000 TC 30 5 259
1961006S11162 1961 5 SP MM BARBARINE 1961-01-15 15:00:00 TS -31.7779 177.771 main 506 486 P________PP_P_ SH121961 -31.7398 177.785 -1 -31.7398 177.785 TC -31.7696 177.785 1 -31.8624 177.728 TC 30 4 234
1961006S11162 1961 5 SP MM BARBARINE 1961-01-15 18:00:00 TS -31.9596 177.573 main 477 448 O________OP_O_ jtwc_sh SH121961 -31.9000 177.600 -1 -31.9000 177.600 TC -31.9385 177.592 1 -32.1000 177.500 TC 30 6 218
1961006S11162 1961 5 SP MM BARBARINE 1961-01-15 21:00:00 TS -32.2131 177.372 main 448 396 P________PP_P_ SH121961 -32.1748 177.387 -1 -32.1748 177.387 TC -32.2132 177.377 1 -32.2896 177.336 TC 30 8 212
1961006S11162 1961 5 SP MM BARBARINE 1961-01-16 00:00:00 TS -32.6000 177.100 main 396 329 O________OO_O_ jtwc_sh SH121961 -32.6000 177.100 -1 -32.6000 177.100 TC -32.6000 177.100 1 -32.6000 177.100 TC 30 11 212
1961006S11162 1961 5 SP MM BARBARINE 1961-01-16 03:00:00 TS -33.1484 176.681 main 329 248 P________PP_P_ SH121961 -33.1625 176.688 -1 -33.1625 176.688 TC -33.1209 176.712 1 -33.1478 176.638 TC 30 14 213
1961006S11162 1961 5 SP MM BARBARINE 1961-01-16 06:00:00 TS -33.7851 176.188 main 241 162 O________OP_O_ jtwc_sh SH121961 -33.8000 176.200 -1 -33.8000 176.200 TC -33.7403 176.251 1 -33.8000 176.100 TC 30 15 213
1961006S11162 1961 5 SP MM BARBARINE 1961-01-16 09:00:00 TS -34.4141 175.701 main 162 85 P________PP_P_ SH121961 -34.4224 175.707 -1 -34.4224 175.707 TC -34.3895 175.739 1 -34.4222 175.649 TC 30 15 214
1961006S11162 1961 5 SP MM BARBARINE 1961-01-16 12:00:00 TS -35.0000 175.200 main 85 35 O________OO_O_ jtwc_sh SH121961 -35.0000 175.200 -1 -35.0000 175.200 TC -35.0000 175.200 1 -35.0000 175.200 TC 30 13 217
1961006S11162 1961 5 SP MM BARBARINE 1961-01-16 15:00:00 TS -35.4694 174.727 main 21 0 P________PP_P_ SH121961 -35.4796 174.714 -1 -35.4796 174.714 TC -35.4386 174.760 1 -35.4797 174.722 TC 30 12 222
1961006S11162 1961 5 SP MM BARBARINE 1961-01-16 18:00:00 TS -35.8839 174.222 main 0 0 O________OP_O_ jtwc_sh SH121961 -35.9000 174.200 -1 -35.9000 174.200 TC -35.8355 174.288 1 -35.9000 174.200 TC 30 12 227
1961006S11162 1961 5 SP MM BARBARINE 1961-01-16 21:00:00 TS -36.2597 173.688 main 29 29 P________PP_P_ SH121961 -36.2688 173.672 -1 -36.2688 173.672 TC -36.2400 173.723 1 -36.2610 173.687 TC 30 13 230
1961006S11162 1961 5 SP MM BARBARINE 1961-01-17 00:00:00 TS -36.7000 173.000 main 103 103 O________OO_O_ jtwc_sh SH121961 -36.7000 173.000 -1 -36.7000 173.000 TC -36.7000 173.000 1 -36.7000 173.000 TC 30 17 230
1961006S11162 1961 5 SP MM BARBARINE 1961-01-17 03:00:00 TS -37.3480 172.075 main 203 203 P________PP_P_ SH121961 -37.3193 172.105 -1 -37.3193 172.105 TC -37.3756 172.097 1 -37.3779 171.992 TC 30 21 230
1961006S11162 1961 5 SP MM BARBARINE 1961-01-17 06:00:00 TS -38.0473 170.953 main 282 282 O________OP_O_ jtwc_sh SH121961 -38.0000 171.000 -1 -38.0000 171.000 TC -38.0891 171.014 1 -38.1000 170.800 TC 30 23 234
1961006S11162 1961 5 SP MM BARBARINE 1961-01-17 09:00:00 TS -38.6968 169.752 main 313 313 P________PP_P_ SH121961 -38.6736 169.784 -1 -38.6736 169.784 TC -38.7329 169.772 1 -38.7074 169.666 TC 30 23 240
1961006S11162 1961 5 SP MM BARBARINE 1961-01-17 12:00:00 TS -39.2000 168.400 main 366 366 O________OO_O_ jtwc_sh SH121961 -39.2000 168.400 -1 -39.2000 168.400 TC -39.2000 168.400 1 -39.2000 168.400 TC 30 24 250
1961006S11162 1961 5 SP MM BARBARINE 1961-01-17 15:00:00 TS -39.5029 166.857 main 463 463 P________PP_P_ SH121961 -39.4770 166.880 -1 -39.4770 166.880 TC -39.4149 166.768 1 -39.6425 166.899 TC 30 25 262
1961006S11162 1961 5 SP MM BARBARINE 1961-01-17 18:00:00 TS -39.5570 165.243 main 562 562 O________OP_O_ jtwc_sh SH121961 -39.5000 165.300 -1 -39.5000 165.300 TC -39.4279 165.071 1 -39.8000 165.300 TC 30 25 273
1961006S11162 1961 5 SP MM BARBARINE 1961-01-17 21:00:00 TS -39.3607 163.611 main 651 651 P________PP_P_ SH121961 -39.3343 163.654 -1 -39.3343 163.654 TC -39.2743 163.515 1 -39.4999 163.619 TC 30 23 284
1961006S11162 1961 5 SP MM BARBARINE 1961-01-18 00:00:00 TS -39.0000 162.300 main 754 754 O________OO_O_ jtwc_sh SH121961 -39.0000 162.300 -1 -39.0000 162.300 TC -39.0000 162.300 1 -39.0000 162.300 TC 30 18 294
1961006S11162 1961 5 SP MM BARBARINE 1961-01-18 03:00:00 TS -38.6486 161.546 main 832 832 P________PP_P_ SH121961 -38.6199 161.468 -1 -38.6199 161.468 TC -38.7004 161.550 1 -38.6543 161.700 TC 30 11 311
1961006S11162 1961 5 SP MM BARBARINE 1961-01-18 06:00:00 TS -38.2533 161.216 main 875 875 O________OP_O_ jtwc_sh SH121961 -38.2000 161.100 -1 -38.2000 161.100 TC -38.3131 161.162 1 -38.3000 161.500 TC 30 9 336
1961006S11162 1961 5 SP MM BARBARINE 1961-01-18 09:00:00 TS -37.8521 161.086 main 914 914 P________PP_P_ SH121961 -37.8219 161.016 -1 -37.8219 161.016 TC -37.8700 161.069 1 -37.8947 161.244 TC 30 9 0
1961006S11162 1961 5 SP MM BARBARINE 1961-01-18 12:00:00 TS -37.4000 161.200 main 953 946 O________OO_O_ jtwc_sh SH121961 -37.4000 161.200 -1 -37.4000 161.200 TC -37.4000 161.200 1 -37.4000 161.200 TC 30 11 14
1961006S11162 1961 5 SP MM BARBARINE 1961-01-18 15:00:00 TS -36.8126 161.406 main 948 943 P________PP_P_ SH121961 -36.8497 161.425 -1 -36.8497 161.425 TC -36.8235 161.376 1 -36.7273 161.396 TC 30 13 22
1961006S11162 1961 5 SP MM BARBARINE 1961-01-18 18:00:00 TS -36.2364 161.787 main 951 951 O________OP_O_ jtwc_sh SH121961 -36.3000 161.800 -1 -36.3000 161.800 TC -36.2458 161.749 1 -36.1000 161.800 TC 30 13 34
1961006S11162 1961 5 SP MM BARBARINE 1961-01-18 21:00:00 TS -35.7541 162.275 main 945 888 P________PP_P_ SH121961 -35.7871 162.277 -1 -35.7871 162.277 TC -35.7701 162.271 1 -35.6721 162.276 TC 30 12 51
1961006S11162 1961 5 SP MM BARBARINE 1961-01-19 00:00:00 TS -35.5000 162.900 main 888 826 O________OO_O_ jtwc_sh SH121961 -35.5000 162.900 -1 -35.5000 162.900 TC -35.5000 162.900 1 -35.5000 162.900 TC 30 11 81
1961006S11162 1961 5 SP MM BARBARINE 1961-01-19 03:00:00 TS -35.5830 163.650 main 826 757 P________PP_P_ SH121961 -35.5878 163.669 -1 -35.5878 163.669 TC -35.5535 163.592 1 -35.6028 163.669 TC 30 13 107
1961006S11162 1961 5 SP MM BARBARINE 1961-01-19 06:00:00 TS -35.8783 164.470 main 750 695 O________OP_O_ jtwc_sh SH121961 -35.9000 164.500 -1 -35.9000 164.500 TC -35.8132 164.381 1 -35.9000 164.500 TC 30 14 116
1961006S11162 1961 5 SP MM BARBARINE 1961-01-19 09:00:00 TS -36.2181 165.254 main 686 639 P________PP_P_ SH121961 -36.2270 165.265 -1 -36.2270 165.265 TC -36.1909 165.205 1 -36.2273 165.280 TC 30 14 120
1961006S11162 1961 5 SP MM BARBARINE 1961-01-19 12:00:00 TS -36.6000 166.000 main 639 594 O________OO_O_ jtwc_sh SH121961 -36.6000 166.000 -1 -36.6000 166.000 TC -36.6000 166.000 1 -36.6000 166.000 TC 30 14 122
1961006S11162 1961 5 SP MM BARBARINE 1961-01-19 15:00:00 TS -36.9523 166.696 main 599 569 P________PP_P_ SH121961 -36.9573 166.730 -1 -36.9573 166.730 TC -36.9380 166.708 1 -36.9567 166.616 TC 30 13 123
1961006S11162 1961 5 SP MM BARBARINE 1961-01-19 18:00:00 TS -37.2966 167.342 main 569 514 O________OP_O_ jtwc_sh SH121961 -37.3000 167.400 -1 -37.3000 167.400 TC -37.2865 167.368 1 -37.3000 167.200 TC 30 12 124
1961006S11162 1961 5 SP MM BARBARINE 1961-01-19 21:00:00 TS -37.6266 167.960 main 508 454 P________PP_P_ SH121961 -37.6297 167.995 -1 -37.6297 167.995 TC -37.6167 167.970 1 -37.6303 167.880 TC 30 11 123
1961006S11162 1961 5 SP MM BARBARINE 1961-01-20 00:00:00 TS -37.9000 168.500 main 454 414 O________OO_O_ jtwc_sh SH121961 -37.9000 168.500 -1 -37.9000 168.500 TC -37.9000 168.500 1 -37.9000 168.500 TC 30 9 120
1961006S11162 1961 5 SP MM BARBARINE 1961-01-20 03:00:00 TS -38.0798 168.943 main 414 384 P________PP_P_ SH121961 -38.0722 168.931 -1 -38.0722 168.931 TC -38.1028 168.966 1 -38.0720 168.946 TC 30 7 116
1961006S11162 1961 5 SP MM BARBARINE 1961-01-20 06:00:00 TS -38.2145 169.315 main 384 344 O________OP_O_ jtwc_sh SH121961 -38.2000 169.300 -1 -38.2000 169.300 TC -38.2582 169.358 1 -38.2000 169.300 TC 30 6 116
1961006S11162 1961 5 SP MM BARBARINE 1961-01-20 09:00:00 TS -38.3586 169.679 main 344 319 P________PP_P_ SH121961 -38.3499 169.673 -1 -38.3499 169.673 TC -38.3845 169.696 1 -38.3499 169.673 TC 30 6 118
1961006S11162 1961 5 SP MM BARBARINE 1961-01-20 12:00:00 TS -38.5000 170.000 main 319 294 O________OO_O_ jtwc_sh SH121961 -38.5000 170.000 -1 -38.5000 170.000 TC -38.5000 170.000 1 -38.5000 170.000 TC 30 5 123
1961006S11162 1961 5 SP MM BARBARINE 1961-01-20 15:00:00 TS -38.6539 170.266 main 285 266 P________PP_P_ SH121961 -38.6573 170.258 -1 -38.6573 170.258 TC -38.6436 170.292 1 -38.6573 170.258 TC 30 5 126
1961006S11162 1961 5 SP MM BARBARINE 1961-01-20 18:00:00 TS -38.7947 170.515 main 266 242 O________OP_O_ jtwc_sh SH121961 -38.8000 170.500 -1 -38.8000 170.500 TC -38.7789 170.558 1 -38.8000 170.500 TC 30 5 122
1961006S11162 1961 5 SP MM BARBARINE 1961-01-20 21:00:00 TS -38.9111 170.794 main 242 219 P________PP_P_ SH121961 -38.9149 170.785 -1 -38.9149 170.785 TC -38.8998 170.820 1 -38.9149 170.785 TC 30 5 114
1961006S11162 1961 5 SP MM BARBARINE 1961-01-21 00:00:00 TS -39.0000 171.100 main 219 195 O________OO_O_ jtwc_sh SH121961 -39.0000 171.100 -1 -39.0000 171.100 TC -39.0000 171.100 1 -39.0000 171.100 TC 30 5 106
1961006S11162 1961 5 SP MM BARBARINE 1961-01-21 03:00:00 TS -39.0600 171.442 main 195 173 P________PP_P_ SH121961 -39.0575 171.443 -1 -39.0575 171.443 TC -39.0677 171.441 1 -39.0575 171.443 TC 30 6 101
1961006S11162 1961 5 SP MM BARBARINE 1961-01-21 06:00:00 TS -39.1038 171.800 main 173 147 O________OP_O_ jtwc_sh SH121961 -39.1000 171.800 -1 -39.1000 171.800 TC -39.1153 171.801 1 -39.1000 171.800 TC 30 6 99
1961006S11162 1961 5 SP MM BARBARINE 1961-01-21 09:00:00 TS -39.1494 172.164 main 139 112 P________PP_P_ SH121961 -39.1500 172.165 -1 -39.1500 172.165 TC -39.1552 172.160 1 -39.1425 172.165 TC 30 5 100
1961006S11162 1961 5 SP MM BARBARINE 1961-01-21 12:00:00 TS -39.2000 172.500 main 112 94 O________OO_O_ jtwc_sh SH121961 -39.2000 172.500 -1 -39.2000 172.500 TC -39.2000 172.500 1 -39.2000 172.500 TC 30 5 104
1961006S11162 1961 5 SP MM BARBARINE 1961-01-21 15:00:00 TS -39.2603 172.744 main 94 68 P________PP_P_ SH121961 -39.2423 172.758 -1 -39.2423 172.758 TC -39.2568 172.705 1 -39.2998 172.757 TC 30 4 109
1961006S11162 1961 5 SP MM BARBARINE 1961-01-21 18:00:00 TS -39.3307 172.976 main 68 52 O________OP_O_ jtwc_sh SH121961 -39.3000 173.000 -1 -39.3000 173.000 TC -39.3227 172.902 1 -39.4000 173.000 TC 30 4 112
1961006S11162 1961 5 SP MM BARBARINE 1961-01-21 21:00:00 TS -39.4068 173.209 main 52 27 P________PP_P_ SH121961 -39.3917 173.225 -1 -39.3917 173.225 TC -39.4025 173.174 1 -39.4414 173.211 TC 30 5 109
1961006S11162 1961 5 SP MM BARBARINE 1961-01-22 00:00:00 TS -39.5000 173.600 main 27 8 O________OO_O_ jtwc_sh SH121961 -39.5000 173.600 -1 -39.5000 173.600 TC -39.5000 173.600 1 -39.5000 173.600 TC 30 9 104
1961006S11162 1961 5 SP MM BARBARINE 1961-01-22 03:00:00 TS -39.6101 174.285 main 0 0 P________PP_P_ SH121961 -39.5924 174.253 -1 -39.5924 174.253 TC -39.6122 174.268 1 -39.6433 174.367 TC 27 12 101
1961006S11162 1961 5 SP MM BARBARINE 1961-01-22 06:00:00 TS -39.7342 175.149 main 0 0 O________OP_O_ jtwc_sh SH121961 -39.7000 175.100 -1 -39.7000 175.100 TC -39.7369 175.097 1 -39.8000 175.300 TC 25 14 101
1961006S11162 1961 5 SP MM BARBARINE 1961-01-22 09:00:00 TS -39.8683 176.043 main 0 0 P________PP_P_ SH121961 -39.8495 176.005 -1 -39.8495 176.005 TC -39.8678 176.028 1 -39.9065 176.136 TC 25 14 101
1961006S11162 1961 5 SP MM BARBARINE 1961-01-22 12:00:00 TS -40.0000 177.000 main 8 8 O________OO_O_ jtwc_sh SH121961 -40.0000 177.000 -1 -40.0000 177.000 TC -40.0000 177.000 1 -40.0000 177.000 TC 25 15 99
1961006S11162 1961 5 SP MM BARBARINE 1961-01-22 15:00:00 TS -40.1017 178.011 main 89 89 P________PP_P_ SH121961 -40.1002 178.066 -1 -40.1002 178.066 TC -40.1145 177.979 1 -40.0921 177.936 TC 25 16 98
1961006S11162 1961 5 SP MM BARBARINE 1961-01-22 18:00:00 TS -40.2076 179.019 main 137 137 O________OP_O_ jtwc_sh SH121961 -40.2000 179.100 -1 -40.2000 179.100 TC -40.2303 178.976 1 -40.2000 178.900 TC 25 15 99
1961006S11162 1961 5 SP MM BARBARINE 1961-01-22 21:00:00 TS -40.3399 179.968 main 210 210 P________PP_P_ SH121961 -40.3344 -179.982 -1 -40.3344 -179.982 TC -40.3555 179.935 1 -40.3353 179.902 TC 25 14 102
1961006S11162 1961 5 SP MM BARBARINE 1961-01-23 00:00:00 TS -40.5000 180.800 main 280 280 O________OO_O_ jtwc_sh SH121961 -40.5000 -179.200 -1 -40.5000 180.800 TC -40.5000 -179.200 1 -40.5000 -179.200 TC 25 12 107
1961006S11162 1961 5 SP MM BARBARINE 1961-01-23 03:00:00 TS -40.6881 181.458 main 343 343 P________PP_P_ SH121961 -40.6915 -178.562 -1 -40.6915 -178.562 TC -40.6783 -178.499 1 -40.6912 -178.547 TC 25 10 113
1961006S11162 1961 5 SP MM BARBARINE 1961-01-23 06:00:00 TS -40.8949 182.026 main 390 390 O________OP_O_ jtwc_sh SH121961 -40.9000 -178.000 -1 -40.9000 182.000 TC -40.8798 -177.894 1 -40.9000 -178.000 TC 25 10 115
1961006S11162 1961 5 SP MM BARBARINE 1961-01-23 09:00:00 TS -41.0977 182.615 main 445 445 P________PP_P_ SH121961 -41.0997 -177.400 -1 -41.0997 -177.400 TC -41.0916 -177.342 1 -41.0997 -177.400 TC 25 10 115
1961006S11162 1961 5 SP MM BARBARINE 1961-01-23 12:00:00 TS -41.3000 183.200 main 500 500 O________OO_O_ jtwc_sh SH121961 -41.3000 -176.800 -1 -41.3000 183.200 TC -41.3000 -176.800 1 -41.3000 -176.800 TC 25 10 115
1961006S11162 1961 5 SP MM BARBARINE 1961-01-23 15:00:00 TS -41.5037 183.792 main 554 554 P________PP_P_ SH121961 -41.5072 -176.200 -1 -41.5072 -176.200 TC -41.4933 -176.232 1 -41.5072 -176.200 TC 25 10 114
1961006S11162 1961 5 SP MM BARBARINE 1961-01-23 18:00:00 TS -41.6930 184.391 main 609 609 O________OP_O_ jtwc_sh SH121961 -41.7000 -175.600 -1 -41.7000 184.400 TC -41.6720 -175.637 1 -41.7000 -175.600 TC 25 10 111
1961006S11162 1961 5 SP MM BARBARINE 1961-01-23 21:00:00 TS -41.8554 184.994 main 663 663 P________PP_P_ SH121961 -41.8606 -175.000 -1 -41.8606 -175.000 TC -41.8397 -175.024 1 -41.8606 -175.000 TC 22 9 109
1961006S11162 1961 5 SP MM BARBARINE 1961-01-24 00:00:00 TS -42.0000 185.600 main 713 O________OO_O_ jtwc_sh SH121961 -42.0000 -174.400 -1 -42.0000 185.600 TC -42.0000 -174.400 1 -42.0000 -174.400 TC 20 9 108

デジタル台風データ・検索

IBTrACS Databaseについて

本データベースは、米国NOAAが公開する1842年以降の世界の熱帯低気圧のベストトラックデータアーカイブInternational Best Track Archive for Climate Stewardship (IBTrACS)を、ウェブで閲覧しやすい形式に変換したものです。

最終更新日:2021-12-03